NKS113 KFLL-KATL
Flight info
| Callsign | NKS113 |
|---|---|
| Flight time | N/A |
| Altitude | 35000 |
| Route | FRSBE2 STYMY Q77 MJAMS/N0454F370 Q77 SHRKS/N0452F360 LAIRI LARZZ JJEDI4 |
| Aircraft | A20N/M-SDE2E3FGHIRWXY/LB1 |
Departure
| Time | 2026-05-04 19:45 |
|---|---|
| Airport | Fort Lauderdale Hollywood International Airport (KFLL) |
Arrival
| Time | N/A |
|---|---|
| Airport | Hartsfield Jackson Atlanta International Airport (KATL) |
| Time | Latitude | Longitude | Altitude | Speed | Heading |
|---|---|---|---|---|---|
| 2026-05-04 19:09 | 26.07151 | -80.14690 | 13 ft | 0 kts | 178° |
| 2026-05-04 19:33 | 26.07159 | -80.14690 | 13 ft | 2 kts | 178° |
| 2026-05-04 19:33 | 26.07174 | -80.14690 | 13 ft | 2 kts | 180° |
| 2026-05-04 19:33 | 26.07188 | -80.14685 | 13 ft | 2 kts | 216° |
| 2026-05-04 19:33 | 26.07198 | -80.14673 | 13 ft | 2 kts | 245° |
| 2026-05-04 19:34 | 26.07202 | -80.14657 | 13 ft | 1 kts | 273° |
| 2026-05-04 19:34 | 26.07201 | -80.14650 | 13 ft | 1 kts | 284° |
| 2026-05-04 19:34 | 26.07200 | -80.14646 | 13 ft | 0 kts | 281° |
| 2026-05-04 19:38 | 26.07200 | -80.14648 | 13 ft | 1 kts | 281° |
| 2026-05-04 19:38 | 26.07205 | -80.14674 | 13 ft | 1 kts | 281° |
| 2026-05-04 19:38 | 26.07211 | -80.14701 | 13 ft | 5 kts | 289° |
| 2026-05-04 19:39 | 26.07232 | -80.14749 | 13 ft | 8 kts | 296° |
| 2026-05-04 19:39 | 26.07262 | -80.14818 | 13 ft | 10 kts | 295° |
| 2026-05-04 19:39 | 26.07326 | -80.14854 | 13 ft | 11 kts | 0° |
| 2026-05-04 19:39 | 26.07378 | -80.14903 | 13 ft | 11 kts | 285° |
| 2026-05-04 19:40 | 26.07416 | -80.14967 | 13 ft | 10 kts | 319° |
| 2026-05-04 19:40 | 26.07471 | -80.15023 | 13 ft | 11 kts | 317° |
| 2026-05-04 19:40 | 26.07528 | -80.15086 | 13 ft | 12 kts | 314° |
| 2026-05-04 19:40 | 26.07564 | -80.15166 | 13 ft | 12 kts | 269° |
| 2026-05-04 19:41 | 26.07564 | -80.15269 | 12 ft | 14 kts | 270° |
| 2026-05-04 19:41 | 26.07564 | -80.15391 | 13 ft | 16 kts | 270° |
| 2026-05-04 19:41 | 26.07564 | -80.15521 | 12 ft | 17 kts | 270° |
| 2026-05-04 19:41 | 26.07564 | -80.15655 | 12 ft | 17 kts | 270° |
| 2026-05-04 19:42 | 26.07567 | -80.15794 | 12 ft | 17 kts | 271° |
| 2026-05-04 19:42 | 26.07567 | -80.15932 | 12 ft | 18 kts | 270° |
| 2026-05-04 19:42 | 26.07568 | -80.16074 | 12 ft | 18 kts | 271° |
| 2026-05-04 19:42 | 26.07569 | -80.16219 | 12 ft | 18 kts | 271° |
| 2026-05-04 19:43 | 26.07570 | -80.16361 | 12 ft | 18 kts | 271° |
| 2026-05-04 19:43 | 26.07571 | -80.16502 | 12 ft | 16 kts | 270° |
| 2026-05-04 19:43 | 26.07571 | -80.16605 | 12 ft | 11 kts | 270° |
| 2026-05-04 19:43 | 26.07590 | -80.16642 | 12 ft | 2 kts | 352° |
| 2026-05-04 19:44 | 26.07614 | -80.16641 | 12 ft | 4 kts | 2° |
| 2026-05-04 19:44 | 26.07663 | -80.16640 | 12 ft | 9 kts | 2° |
| 2026-05-04 19:44 | 26.07695 | -80.16601 | 12 ft | 5 kts | 92° |
| 2026-05-04 19:44 | 26.07694 | -80.16598 | 12 ft | 0 kts | 92° |
| 2026-05-04 19:45 | 26.07694 | -80.16564 | 12 ft | 24 kts | 90° |
| 2026-05-04 19:45 | 26.07691 | -80.16064 | 12 ft | 101 kts | 90° |
| 2026-05-04 19:45 | 26.07686 | -80.15023 | 17 ft | 162 kts | 89° |
| 2026-05-04 19:45 | 26.07669 | -80.13743 | 619 ft | 167 kts | 90° |
| 2026-05-04 19:46 | 26.07626 | -80.12472 | 1437 ft | 166 kts | 90° |
| 2026-05-04 19:46 | 26.07582 | -80.11210 | 2148 ft | 171 kts | 90° |
| 2026-05-04 19:46 | 26.07698 | -80.09848 | 2650 ft | 188 kts | 70° |
| 2026-05-04 19:46 | 26.08316 | -80.08511 | 3275 ft | 201 kts | 60° |
| 2026-05-04 19:47 | 26.09091 | -80.07203 | 3928 ft | 212 kts | 45° |
| 2026-05-04 19:47 | 26.10444 | -80.06406 | 4395 ft | 232 kts | 20° |
| 2026-05-04 19:47 | 26.12030 | -80.05823 | 4943 ft | 250 kts | 17° |
| 2026-05-04 19:47 | 26.13739 | -80.05205 | 5599 ft | 263 kts | 19° |
| 2026-05-04 19:48 | 26.15492 | -80.04524 | 6306 ft | 272 kts | 9° |
| 2026-05-04 19:48 | 26.17385 | -80.04684 | 7003 ft | 277 kts | 337° |
| 2026-05-04 19:48 | 26.19128 | -80.05565 | 7803 ft | 281 kts | 332° |
| 2026-05-04 19:48 | 26.20891 | -80.06534 | 8648 ft | 285 kts | 330° |
| 2026-05-04 19:49 | 26.22597 | -80.07642 | 9457 ft | 283 kts | 314° |
| 2026-05-04 19:49 | 26.23696 | -80.09377 | 10289 ft | 277 kts | 288° |
| 2026-05-04 19:49 | 26.24289 | -80.11439 | 10853 ft | 288 kts | 284° |
| 2026-05-04 19:49 | 26.24876 | -80.13635 | 11231 ft | 306 kts | 287° |
| 2026-05-04 19:50 | 26.25714 | -80.15889 | 11600 ft | 324 kts | 294° |
| 2026-05-04 19:50 | 26.26808 | -80.18134 | 12253 ft | 331 kts | 298° |
| 2026-05-04 19:50 | 26.28010 | -80.20313 | 13038 ft | 333 kts | 299° |
| 2026-05-04 19:50 | 26.29232 | -80.22492 | 13773 ft | 334 kts | 299° |
| 2026-05-04 19:51 | 26.30469 | -80.24686 | 14451 ft | 338 kts | 299° |
| 2026-05-04 19:51 | 26.31731 | -80.26917 | 15100 ft | 341 kts | 299° |
| 2026-05-04 19:51 | 26.32996 | -80.29152 | 15747 ft | 344 kts | 299° |
| 2026-05-04 19:51 | 26.34269 | -80.31399 | 16366 ft | 347 kts | 299° |
| 2026-05-04 19:52 | 26.35555 | -80.33669 | 16980 ft | 349 kts | 298° |
| 2026-05-04 19:52 | 26.36863 | -80.35977 | 17592 ft | 352 kts | 299° |
| 2026-05-04 19:52 | 26.38165 | -80.38277 | 18182 ft | 354 kts | 298° |
| 2026-05-04 19:52 | 26.39488 | -80.40612 | 18755 ft | 356 kts | 298° |
| 2026-05-04 19:53 | 26.40807 | -80.42949 | 19318 ft | 359 kts | 298° |
| 2026-05-04 19:53 | 26.42142 | -80.45312 | 19871 ft | 362 kts | 298° |
| 2026-05-04 19:53 | 26.43490 | -80.47699 | 20415 ft | 365 kts | 299° |
| 2026-05-04 19:53 | 26.44839 | -80.50088 | 20943 ft | 368 kts | 298° |
| 2026-05-04 19:54 | 26.46220 | -80.52532 | 21474 ft | 371 kts | 299° |
| 2026-05-04 19:54 | 26.47807 | -80.54798 | 21945 ft | 380 kts | 311° |
| 2026-05-04 19:54 | 26.49954 | -80.56606 | 22435 ft | 392 kts | 325° |
| 2026-05-04 19:54 | 26.52483 | -80.57782 | 22960 ft | 403 kts | 337° |
| 2026-05-04 19:55 | 26.55199 | -80.58662 | 23495 ft | 406 kts | 338° |
| 2026-05-04 19:55 | 26.57943 | -80.59521 | 24025 ft | 409 kts | 338° |
| 2026-05-04 19:55 | 26.60690 | -80.60381 | 24525 ft | 411 kts | 338° |
| 2026-05-04 19:55 | 26.63461 | -80.61251 | 25025 ft | 413 kts | 338° |
| 2026-05-04 19:56 | 26.66261 | -80.62138 | 25489 ft | 416 kts | 338° |
| 2026-05-04 19:56 | 26.69053 | -80.63025 | 25971 ft | 418 kts | 338° |
| 2026-05-04 19:56 | 26.71842 | -80.63908 | 26408 ft | 420 kts | 337° |
| 2026-05-04 19:56 | 26.74673 | -80.64810 | 26845 ft | 422 kts | 337° |
| 2026-05-04 19:57 | 26.77516 | -80.65717 | 27303 ft | 424 kts | 337° |
| 2026-05-04 19:57 | 26.80365 | -80.66625 | 27734 ft | 426 kts | 337° |
| 2026-05-04 19:57 | 26.83216 | -80.67534 | 28145 ft | 427 kts | 337° |
| 2026-05-04 19:57 | 26.86064 | -80.68442 | 28520 ft | 429 kts | 336° |
| 2026-05-04 19:58 | 26.88976 | -80.69372 | 28829 ft | 432 kts | 336° |
| 2026-05-04 19:58 | 26.91839 | -80.70335 | 29222 ft | 431 kts | 335° |
| 2026-05-04 19:58 | 26.94695 | -80.71394 | 29736 ft | 428 kts | 334° |
| 2026-05-04 19:58 | 26.97516 | -80.72456 | 30214 ft | 425 kts | 334° |
| 2026-05-04 19:59 | 27.00323 | -80.73517 | 30661 ft | 423 kts | 333° |
| 2026-05-04 19:59 | 27.03111 | -80.74572 | 31041 ft | 423 kts | 333° |
| 2026-05-04 19:59 | 27.05919 | -80.75639 | 31372 ft | 424 kts | 333° |
| 2026-05-04 19:59 | 27.08686 | -80.76688 | 31722 ft | 423 kts | 333° |
| 2026-05-04 20:00 | 27.11504 | -80.77756 | 32091 ft | 423 kts | 333° |
| 2026-05-04 20:00 | 27.14310 | -80.78819 | 32447 ft | 422 kts | 333° |
| 2026-05-04 20:00 | 27.17104 | -80.79880 | 32794 ft | 421 kts | 333° |
| 2026-05-04 20:00 | 27.19862 | -80.80926 | 33133 ft | 421 kts | 333° |
| 2026-05-04 20:01 | 27.22664 | -80.81992 | 33469 ft | 420 kts | 332° |
| 2026-05-04 20:01 | 27.25429 | -80.83043 | 33805 ft | 419 kts | 332° |
| 2026-05-04 20:01 | 27.28173 | -80.84086 | 34133 ft | 419 kts | 332° |
| 2026-05-04 20:01 | 27.30952 | -80.85144 | 34436 ft | 419 kts | 332° |
| 2026-05-04 20:02 | 27.33716 | -80.86215 | 34672 ft | 419 kts | 331° |
| 2026-05-04 20:02 | 27.36449 | -80.87333 | 34841 ft | 421 kts | 330° |
| 2026-05-04 20:02 | 27.39180 | -80.88464 | 35035 ft | 422 kts | 331° |
| 2026-05-04 20:02 | 27.41968 | -80.89619 | 35250 ft | 423 kts | 331° |
| 2026-05-04 20:03 | 27.44728 | -80.90758 | 35462 ft | 424 kts | 331° |
| 2026-05-04 20:03 | 27.47522 | -80.91914 | 35654 ft | 425 kts | 331° |
| 2026-05-04 20:03 | 27.50288 | -80.93053 | 35856 ft | 425 kts | 331° |
| 2026-05-04 20:03 | 27.53103 | -80.94214 | 36015 ft | 426 kts | 331° |
| 2026-05-04 20:04 | 27.55888 | -80.95363 | 36031 ft | 428 kts | 331° |
| 2026-05-04 20:04 | 27.61477 | -80.97669 | 36036 ft | 429 kts | 331° |
| 2026-05-04 20:05 | 27.67079 | -80.99983 | 36039 ft | 427 kts | 331° |
| 2026-05-04 20:05 | 27.72696 | -81.02304 | 36040 ft | 428 kts | 331° |
| 2026-05-04 20:06 | 27.78318 | -81.04631 | 36041 ft | 429 kts | 331° |
| 2026-05-04 20:06 | 27.83938 | -81.06961 | 36039 ft | 429 kts | 331° |
| 2026-05-04 20:07 | 27.89546 | -81.09288 | 36041 ft | 428 kts | 331° |
| 2026-05-04 20:07 | 27.95115 | -81.11601 | 36039 ft | 428 kts | 332° |
| 2026-05-04 20:08 | 28.00728 | -81.13936 | 36038 ft | 428 kts | 331° |
| 2026-05-04 20:08 | 28.06239 | -81.16470 | 36034 ft | 425 kts | 328° |
| 2026-05-04 20:09 | 28.11633 | -81.19241 | 36045 ft | 424 kts | 327° |
| 2026-05-04 20:09 | 28.17047 | -81.22035 | 36051 ft | 423 kts | 327° |
| 2026-05-04 20:10 | 28.22410 | -81.24803 | 36056 ft | 422 kts | 327° |
| 2026-05-04 20:10 | 28.27759 | -81.27567 | 36056 ft | 423 kts | 328° |
| 2026-05-04 20:11 | 28.33152 | -81.30353 | 36058 ft | 423 kts | 328° |
| 2026-05-04 20:11 | 28.38552 | -81.33122 | 36059 ft | 422 kts | 328° |
| 2026-05-04 20:12 | 28.43923 | -81.35861 | 36062 ft | 421 kts | 328° |
| 2026-05-04 20:12 | 28.49280 | -81.38599 | 36059 ft | 421 kts | 328° |
| 2026-05-04 20:13 | 28.54652 | -81.41350 | 36060 ft | 422 kts | 328° |
| 2026-05-04 20:13 | 28.59996 | -81.44089 | 36058 ft | 422 kts | 328° |
| 2026-05-04 20:14 | 28.65345 | -81.46836 | 36057 ft | 422 kts | 328° |
| 2026-05-04 20:14 | 28.70718 | -81.49596 | 36273 ft | 417 kts | 328° |
| 2026-05-04 20:14 | 28.73352 | -81.50950 | 36549 ft | 414 kts | 328° |
| 2026-05-04 20:15 | 28.75972 | -81.52297 | 36827 ft | 412 kts | 328° |
| 2026-05-04 20:15 | 28.78579 | -81.53639 | 37043 ft | 411 kts | 328° |
| 2026-05-04 20:15 | 28.81187 | -81.54987 | 37048 ft | 413 kts | 329° |
| 2026-05-04 20:16 | 28.86487 | -81.57640 | 37049 ft | 416 kts | 332° |
| 2026-05-04 20:16 | 28.92038 | -81.59763 | 37049 ft | 423 kts | 338° |
| 2026-05-04 20:17 | 28.97833 | -81.61213 | 37043 ft | 429 kts | 344° |
| 2026-05-04 20:17 | 29.03806 | -81.61977 | 37037 ft | 433 kts | 348° |
| 2026-05-04 20:18 | 29.09799 | -81.62517 | 37033 ft | 433 kts | 348° |
| 2026-05-04 20:18 | 29.15869 | -81.63065 | 37033 ft | 433 kts | 348° |
| 2026-05-04 20:19 | 29.21884 | -81.63612 | 37034 ft | 433 kts | 348° |
| 2026-05-04 20:19 | 29.27900 | -81.64162 | 37036 ft | 433 kts | 348° |
| 2026-05-04 20:20 | 29.33905 | -81.64711 | 37036 ft | 433 kts | 348° |
| 2026-05-04 20:20 | 29.39967 | -81.65268 | 37038 ft | 432 kts | 347° |
| 2026-05-04 20:21 | 29.45988 | -81.65822 | 37034 ft | 431 kts | 347° |
| 2026-05-04 20:21 | 29.54981 | -81.66650 | 37027 ft | 431 kts | 347° |
| 2026-05-04 20:22 | 29.60983 | -81.67203 | 37029 ft | 431 kts | 347° |
| 2026-05-04 20:22 | 29.67002 | -81.67757 | 37028 ft | 431 kts | 347° |
| 2026-05-04 20:23 | 29.72978 | -81.68309 | 37027 ft | 430 kts | 347° |
| 2026-05-04 20:23 | 29.78953 | -81.68864 | 37032 ft | 432 kts | 347° |
| 2026-05-04 20:24 | 29.85003 | -81.69425 | 37041 ft | 432 kts | 347° |
| 2026-05-04 20:24 | 29.90986 | -81.69981 | 37041 ft | 430 kts | 347° |
| 2026-05-04 20:25 | 29.96997 | -81.70539 | 37054 ft | 431 kts | 346° |
| 2026-05-04 20:25 | 30.02952 | -81.71093 | 37058 ft | 430 kts | 346° |
| 2026-05-04 20:26 | 30.08951 | -81.71652 | 37066 ft | 430 kts | 346° |
| 2026-05-04 20:26 | 30.14938 | -81.72212 | 37067 ft | 430 kts | 346° |
| 2026-05-04 20:27 | 30.20924 | -81.72770 | 37070 ft | 430 kts | 346° |
| 2026-05-04 20:27 | 30.26880 | -81.73328 | 37068 ft | 430 kts | 346° |
| 2026-05-04 20:28 | 30.32871 | -81.73888 | 36981 ft | 432 kts | 346° |
| 2026-05-04 20:28 | 30.35877 | -81.74171 | 36711 ft | 431 kts | 346° |
| 2026-05-04 20:28 | 30.38879 | -81.74451 | 36443 ft | 431 kts | 346° |
| 2026-05-04 20:29 | 30.41888 | -81.74732 | 36173 ft | 430 kts | 346° |
| 2026-05-04 20:29 | 30.44862 | -81.75013 | 36074 ft | 430 kts | 346° |
| 2026-05-04 20:29 | 30.50860 | -81.75576 | 36068 ft | 430 kts | 346° |
| 2026-05-04 20:30 | 30.56805 | -81.76320 | 36067 ft | 425 kts | 341° |
| 2026-05-04 20:30 | 30.62524 | -81.77805 | 36059 ft | 417 kts | 334° |
| 2026-05-04 20:31 | 30.67945 | -81.80028 | 36054 ft | 409 kts | 328° |
| 2026-05-04 20:31 | 30.73054 | -81.82838 | 36056 ft | 404 kts | 324° |
| 2026-05-04 20:32 | 30.78119 | -81.85771 | 36049 ft | 404 kts | 324° |
| 2026-05-04 20:32 | 30.83137 | -81.88683 | 36037 ft | 404 kts | 324° |
| 2026-05-04 20:33 | 30.88205 | -81.91625 | 36037 ft | 404 kts | 324° |
| 2026-05-04 20:33 | 30.93222 | -81.94537 | 36032 ft | 404 kts | 324° |
| 2026-05-04 20:34 | 30.98244 | -81.97459 | 36034 ft | 403 kts | 324° |
| 2026-05-04 20:34 | 31.03282 | -82.00391 | 36037 ft | 403 kts | 324° |
| 2026-05-04 20:35 | 31.08288 | -82.03309 | 36023 ft | 403 kts | 324° |
| 2026-05-04 20:35 | 31.13333 | -82.06255 | 36034 ft | 402 kts | 324° |
| 2026-05-04 20:36 | 31.18351 | -82.09186 | 36035 ft | 403 kts | 324° |